WMSA

Sultan Abdul Aziz Shah International Airport

Subang, Malaysia
TAF WMSA 202300Z 2100/2200 01005KT 8000 FEW017CB SCT020 TEMPO 2105/2109 08010G20KT 3000 TSRA FEW015CB SCT018 PROB30 TEMPO 2110/2114 4000 TSRA FEW016CB BECMG 2117/2119 VRB02KT 6000 FEW026
Issued Valid From Valid To
Apr-20 @ 23:00 UTC
(5 hours ago)
Apr-21 @ 00:00 UTC
(4 hours ago)
Apr-22 @ 00:00 UTC
(in 20 hours)
Apr-21 @ 00:00 to Apr-21 @ 17:00
TAF WMSA 202300Z 2100/2200 01005KT 8000 FEW017CB SCT020
Wind Visibility Clouds
10° at 5 knots 7,998 meters
  • Few at 1,700' AGL
  • Scattered at 2,000' AGL
Temporary Apr-21 @ 05:00 to Apr-21 @ 09:00
TEMPO 2105/2109 08010G20KT 3000 TSRA FEW015CB SCT018
Wind Visibility Clouds Conditions
80° at 10 knots
 Gusting to 20 knots
2,993 meters
  • Few at 1,500' AGL
  • Scattered at 1,800' AGL
  • Thunderstorm
  • Rain
Temporary  (Probability 30%) Apr-21 @ 10:00 to Apr-21 @ 14:00
PROB30 TEMPO 2110/2114 4000 TSRA FEW016CB
Visibility Clouds Conditions
4,007 meters
  • Few at 1,600' AGL
  • Thunderstorm
  • Rain
Becoming Apr-21 @ 17:00 to Apr-22 @ 00:00
BECMG 2117/2119 VRB02KT 6000 FEW026
Wind Visibility Clouds
Variable at 2 knots 6,003 meters
  • Few at 2,600' AGL
TAF WMSA 202300Z 2100/2200 01005KT 8000 FEW017CB SCT020 TEMPO 2105/2109 08010G20KT 3000 TSRA FEW015CB SCT018 PROB30 TEMPO 2110/2114 4000 TSRA FEW016CB BECMG 2117/2119 VRB02KT 6000 FEW026
Issued Apr-20 @ 23:00 UTC
(5 hours ago)
Valid From Apr-21 @ 00:00 UTC
(4 hours ago)
Valid To Apr-22 @ 00:00 UTC
(in 20 hours)
Apr-21 @ 00:00 - Apr-21 @ 17:00
Wind Visibility
10° at 5 knots 7,998 meters
Clouds
  • Few at 1,700' AGL
  • Scattered at 2,000' AGL
Temporary Apr-21 @ 05:00 - Apr-21 @ 09:00
Wind Visibility
80° at 10 knots
 Gusting to 20 knots
2,993 meters
Clouds
  • Few at 1,500' AGL
  • Scattered at 1,800' AGL
Conditions
  • Thunderstorm
  • Rain
Probability 30% Temporary Apr-21 @ 10:00 - Apr-21 @ 14:00
Clouds
  • Few at 1,600' AGL
Conditions
  • Thunderstorm
  • Rain
Becoming Apr-21 @ 17:00 - Apr-22 @ 00:00
Wind Visibility
Variable at 2 knots 6,003 meters
Clouds
  • Few at 2,600' AGL